sensor_id;sensor_type;location;lat;lon;timestamp;P1;durP1;ratioP1;P2;durP2;ratioP2
60851;SDS011;48553;50.766;2.900;2023-03-01T00:02:14;12.45;;;6.60;;
60851;SDS011;48553;50.766;2.900;2023-03-01T00:05:14;10.88;;;6.13;;
60851;SDS011;48553;50.766;2.900;2023-03-01T00:08:14;10.65;;;6.32;;
60851;SDS011;48553;50.766;2.900;2023-03-01T00:11:25;13.80;;;6.35;;
60851;SDS011;48553;50.766;2.900;2023-03-01T00:14:28;12.68;;;5.93;;
60851;SDS011;48553;50.766;2.900;2023-03-01T00:17:28;12.82;;;6.15;;
60851;SDS011;48553;50.766;2.900;2023-03-01T00:20:28;9.57;;;6.00;;
60851;SDS011;48553;50.766;2.900;2023-03-01T00:23:29;10.77;;;6.07;;
60851;SDS011;48553;50.766;2.900;2023-03-01T00:26:29;10.15;;;5.80;;
60851;SDS011;48553;50.766;2.900;2023-03-01T00:29:30;11.43;;;5.70;;
60851;SDS011;48553;50.766;2.900;2023-03-01T00:32:30;9.20;;;5.28;;
60851;SDS011;48553;50.766;2.900;2023-03-01T00:35:34;10.20;;;5.50;;
60851;SDS011;48553;50.766;2.900;2023-03-01T00:38:36;10.38;;;5.13;;
60851;SDS011;48553;50.766;2.900;2023-03-01T00:41:38;7.53;;;4.93;;
60851;SDS011;48553;50.766;2.900;2023-03-01T00:44:40;9.40;;;5.28;;
60851;SDS011;48553;50.766;2.900;2023-03-01T00:47:40;8.20;;;4.80;;
60851;SDS011;48553;50.766;2.900;2023-03-01T00:50:40;8.00;;;4.72;;
60851;SDS011;48553;50.766;2.900;2023-03-01T00:53:41;8.75;;;4.90;;
60851;SDS011;48553;50.766;2.900;2023-03-01T00:56:42;9.40;;;4.88;;
60851;SDS011;48553;50.766;2.900;2023-03-01T00:59:43;9.32;;;4.60;;
60851;SDS011;48553;50.766;2.900;2023-03-01T01:02:43;8.85;;;4.32;;
60851;SDS011;48553;50.766;2.900;2023-03-01T01:05:44;7.28;;;4.50;;
60851;SDS011;48553;50.766;2.900;2023-03-01T01:08:45;8.60;;;4.25;;
60851;SDS011;48553;50.766;2.900;2023-03-01T01:11:46;9.15;;;4.72;;
60851;SDS011;48553;50.766;2.900;2023-03-01T01:14:49;7.32;;;4.28;;
60851;SDS011;48553;50.766;2.900;2023-03-01T01:17:49;8.95;;;4.60;;
60851;SDS011;48553;50.766;2.900;2023-03-01T01:20:50;9.30;;;4.75;;
60851;SDS011;48553;50.766;2.900;2023-03-01T01:23:50;10.30;;;4.43;;
60851;SDS011;48553;50.766;2.900;2023-03-01T01:26:51;7.45;;;4.18;;
60851;SDS011;48553;50.766;2.900;2023-03-01T01:29:52;7.03;;;4.03;;
60851;SDS011;48553;50.766;2.900;2023-03-01T01:32:53;7.20;;;4.30;;
60851;SDS011;48553;50.766;2.900;2023-03-01T01:35:53;7.88;;;4.50;;
60851;SDS011;48553;50.766;2.900;2023-03-01T01:38:54;8.45;;;4.45;;
60851;SDS011;48553;50.766;2.900;2023-03-01T01:41:55;8.45;;;4.38;;
60851;SDS011;48553;50.766;2.900;2023-03-01T01:48:24;7.55;;;4.38;;
60851;SDS011;48553;50.766;2.900;2023-03-01T01:51:40;8.95;;;4.38;;
60851;SDS011;48553;50.766;2.900;2023-03-01T01:58:01;7.57;;;4.38;;
60851;SDS011;48553;50.766;2.900;2023-03-01T02:01:05;8.57;;;4.57;;
60851;SDS011;48553;50.766;2.900;2023-03-01T02:04:05;9.75;;;5.07;;
60851;SDS011;48553;50.766;2.900;2023-03-01T02:07:09;9.18;;;4.90;;
60851;SDS011;48553;50.766;2.900;2023-03-01T02:10:15;8.65;;;4.70;;
60851;SDS011;48553;50.766;2.900;2023-03-01T02:13:16;7.70;;;4.53;;
60851;SDS011;48553;50.766;2.900;2023-03-01T02:16:16;9.23;;;5.03;;
60851;SDS011;48553;50.766;2.900;2023-03-01T02:19:25;7.53;;;4.68;;
60851;SDS011;48553;50.766;2.900;2023-03-01T02:22:39;8.05;;;4.88;;
60851;SDS011;48553;50.766;2.900;2023-03-01T02:26:02;9.65;;;5.25;;
60851;SDS011;48553;50.766;2.900;2023-03-01T02:29:09;7.90;;;4.88;;
60851;SDS011;48553;50.766;2.900;2023-03-01T02:32:09;9.45;;;5.10;;
60851;SDS011;48553;50.766;2.900;2023-03-01T02:35:13;9.95;;;5.03;;
60851;SDS011;48553;50.766;2.900;2023-03-01T02:38:15;8.88;;;5.07;;
60851;SDS011;48553;50.766;2.900;2023-03-01T02:41:17;7.80;;;4.97;;
60851;SDS011;48553;50.766;2.900;2023-03-01T02:44:20;10.80;;;5.32;;
60851;SDS011;48553;50.766;2.900;2023-03-01T02:47:21;11.35;;;5.38;;
60851;SDS011;48553;50.766;2.900;2023-03-01T02:50:35;10.30;;;5.15;;
60851;SDS011;48553;50.766;2.900;2023-03-01T02:54:01;11.02;;;5.00;;
60851;SDS011;48553;50.766;2.900;2023-03-01T02:57:10;10.25;;;5.32;;
60851;SDS011;48553;50.766;2.900;2023-03-01T03:00:13;10.20;;;5.50;;
60851;SDS011;48553;50.766;2.900;2023-03-01T03:03:20;8.43;;;4.85;;
60851;SDS011;48553;50.766;2.900;2023-03-01T03:06:21;10.73;;;5.57;;
60851;SDS011;48553;50.766;2.900;2023-03-01T03:09:22;10.30;;;5.35;;
60851;SDS011;48553;50.766;2.900;2023-03-01T03:12:22;9.82;;;5.60;;
60851;SDS011;48553;50.766;2.900;2023-03-01T03:15:23;8.10;;;5.15;;
60851;SDS011;48553;50.766;2.900;2023-03-01T03:18:24;12.82;;;6.75;;
60851;SDS011;48553;50.766;2.900;2023-03-01T03:21:28;11.70;;;6.38;;
60851;SDS011;48553;50.766;2.900;2023-03-01T03:24:28;12.90;;;6.80;;
60851;SDS011;48553;50.766;2.900;2023-03-01T03:27:37;11.68;;;6.20;;
60851;SDS011;48553;50.766;2.900;2023-03-01T03:30:40;9.93;;;5.95;;
60851;SDS011;48553;50.766;2.900;2023-03-01T03:33:41;11.75;;;6.57;;
60851;SDS011;48553;50.766;2.900;2023-03-01T03:36:41;11.98;;;6.93;;
60851;SDS011;48553;50.766;2.900;2023-03-01T03:39:41;12.20;;;6.38;;
60851;SDS011;48553;50.766;2.900;2023-03-01T03:42:42;12.13;;;7.00;;
60851;SDS011;48553;50.766;2.900;2023-03-01T03:45:46;13.23;;;6.95;;
60851;SDS011;48553;50.766;2.900;2023-03-01T03:48:50;12.25;;;6.68;;
60851;SDS011;48553;50.766;2.900;2023-03-01T03:51:51;12.50;;;7.05;;
60851;SDS011;48553;50.766;2.900;2023-03-01T03:54:51;12.45;;;7.05;;
60851;SDS011;48553;50.766;2.900;2023-03-01T03:57:52;14.27;;;7.03;;
60851;SDS011;48553;50.766;2.900;2023-03-01T04:00:55;13.82;;;6.95;;
60851;SDS011;48553;50.766;2.900;2023-03-01T04:03:56;12.48;;;6.97;;
60851;SDS011;48553;50.766;2.900;2023-03-01T04:07:03;12.55;;;7.25;;
60851;SDS011;48553;50.766;2.900;2023-03-01T04:10:04;13.23;;;7.28;;
60851;SDS011;48553;50.766;2.900;2023-03-01T04:13:08;13.32;;;7.28;;
60851;SDS011;48553;50.766;2.900;2023-03-01T04:16:11;11.88;;;6.78;;
60851;SDS011;48553;50.766;2.900;2023-03-01T04:19:11;12.02;;;6.80;;
60851;SDS011;48553;50.766;2.900;2023-03-01T04:22:11;13.25;;;7.57;;
60851;SDS011;48553;50.766;2.900;2023-03-01T04:25:17;12.73;;;7.60;;
60851;SDS011;48553;50.766;2.900;2023-03-01T04:28:18;11.73;;;6.53;;
60851;SDS011;48553;50.766;2.900;2023-03-01T04:31:18;12.25;;;7.00;;
60851;SDS011;48553;50.766;2.900;2023-03-01T04:34:21;12.85;;;7.10;;
60851;SDS011;48553;50.766;2.900;2023-03-01T04:37:21;12.73;;;7.43;;
60851;SDS011;48553;50.766;2.900;2023-03-01T04:40:22;13.77;;;7.22;;
60851;SDS011;48553;50.766;2.900;2023-03-01T04:43:22;13.02;;;6.93;;
60851;SDS011;48553;50.766;2.900;2023-03-01T04:46:22;13.27;;;7.43;;
60851;SDS011;48553;50.766;2.900;2023-03-01T04:49:23;14.13;;;7.05;;
60851;SDS011;48553;50.766;2.900;2023-03-01T04:52:23;12.32;;;6.90;;
60851;SDS011;48553;50.766;2.900;2023-03-01T04:55:28;13.05;;;7.13;;
60851;SDS011;48553;50.766;2.900;2023-03-01T04:58:28;12.90;;;7.45;;
60851;SDS011;48553;50.766;2.900;2023-03-01T05:01:29;14.18;;;7.53;;
60851;SDS011;48553;50.766;2.900;2023-03-01T05:04:30;14.05;;;7.68;;
60851;SDS011;48553;50.766;2.900;2023-03-01T05:07:30;13.13;;;7.38;;
60851;SDS011;48553;50.766;2.900;2023-03-01T05:10:31;11.77;;;7.28;;
60851;SDS011;48553;50.766;2.900;2023-03-01T05:13:38;14.70;;;7.90;;
60851;SDS011;48553;50.766;2.900;2023-03-01T05:16:39;11.63;;;7.22;;
60851;SDS011;48553;50.766;2.900;2023-03-01T05:19:39;13.05;;;7.40;;
60851;SDS011;48553;50.766;2.900;2023-03-01T05:22:42;13.05;;;7.55;;
60851;SDS011;48553;50.766;2.900;2023-03-01T05:25:43;12.00;;;6.93;;
60851;SDS011;48553;50.766;2.900;2023-03-01T05:28:44;13.55;;;7.55;;
60851;SDS011;48553;50.766;2.900;2023-03-01T05:31:44;16.42;;;7.97;;
60851;SDS011;48553;50.766;2.900;2023-03-01T05:34:44;13.98;;;7.88;;
60851;SDS011;48553;50.766;2.900;2023-03-01T05:37:47;12.80;;;7.38;;
60851;SDS011;48553;50.766;2.900;2023-03-01T05:40:48;14.52;;;7.60;;
60851;SDS011;48553;50.766;2.900;2023-03-01T05:43:49;13.07;;;7.95;;
60851;SDS011;48553;50.766;2.900;2023-03-01T05:46:49;14.38;;;7.88;;
60851;SDS011;48553;50.766;2.900;2023-03-01T05:49:50;13.23;;;7.43;;
60851;SDS011;48553;50.766;2.900;2023-03-01T05:52:51;14.95;;;7.88;;
60851;SDS011;48553;50.766;2.900;2023-03-01T05:55:59;12.95;;;8.00;;
60851;SDS011;48553;50.766;2.900;2023-03-01T05:59:00;13.80;;;7.93;;
60851;SDS011;48553;50.766;2.900;2023-03-01T06:02:01;14.38;;;8.00;;
60851;SDS011;48553;50.766;2.900;2023-03-01T06:05:02;14.88;;;8.10;;
60851;SDS011;48553;50.766;2.900;2023-03-01T06:08:02;14.88;;;7.82;;
60851;SDS011;48553;50.766;2.900;2023-03-01T06:11:03;16.27;;;8.13;;
60851;SDS011;48553;50.766;2.900;2023-03-01T06:14:04;14.57;;;7.65;;
60851;SDS011;48553;50.766;2.900;2023-03-01T06:17:06;16.52;;;8.10;;
60851;SDS011;48553;50.766;2.900;2023-03-01T06:20:11;16.08;;;8.05;;
60851;SDS011;48553;50.766;2.900;2023-03-01T06:23:14;14.55;;;7.72;;
60851;SDS011;48553;50.766;2.900;2023-03-01T06:26:14;12.48;;;7.28;;
60851;SDS011;48553;50.766;2.900;2023-03-01T06:29:15;13.13;;;7.18;;
60851;SDS011;48553;50.766;2.900;2023-03-01T06:32:15;14.30;;;7.93;;
60851;SDS011;48553;50.766;2.900;2023-03-01T06:35:16;11.88;;;7.10;;
60851;SDS011;48553;50.766;2.900;2023-03-01T06:38:17;13.48;;;7.47;;
60851;SDS011;48553;50.766;2.900;2023-03-01T06:41:19;14.30;;;7.65;;
60851;SDS011;48553;50.766;2.900;2023-03-01T06:44:19;14.48;;;7.35;;
60851;SDS011;48553;50.766;2.900;2023-03-01T06:47:19;15.27;;;7.50;;
60851;SDS011;48553;50.766;2.900;2023-03-01T06:50:20;14.02;;;7.10;;
60851;SDS011;48553;50.766;2.900;2023-03-01T06:53:20;14.63;;;7.80;;
60851;SDS011;48553;50.766;2.900;2023-03-01T06:56:21;13.40;;;7.47;;
60851;SDS011;48553;50.766;2.900;2023-03-01T06:59:21;12.80;;;6.75;;
60851;SDS011;48553;50.766;2.900;2023-03-01T07:02:21;11.88;;;6.57;;
60851;SDS011;48553;50.766;2.900;2023-03-01T07:05:22;14.48;;;7.32;;
60851;SDS011;48553;50.766;2.900;2023-03-01T07:08:22;12.73;;;6.93;;
60851;SDS011;48553;50.766;2.900;2023-03-01T07:11:23;13.40;;;7.50;;
60851;SDS011;48553;50.766;2.900;2023-03-01T07:14:24;13.23;;;7.35;;
60851;SDS011;48553;50.766;2.900;2023-03-01T07:17:25;15.25;;;7.38;;
60851;SDS011;48553;50.766;2.900;2023-03-01T07:20:26;13.13;;;6.97;;
60851;SDS011;48553;50.766;2.900;2023-03-01T07:23:26;14.30;;;7.28;;
60851;SDS011;48553;50.766;2.900;2023-03-01T07:26:27;13.15;;;7.28;;
60851;SDS011;48553;50.766;2.900;2023-03-01T07:29:27;13.85;;;7.30;;
60851;SDS011;48553;50.766;2.900;2023-03-01T07:32:28;12.10;;;6.88;;
60851;SDS011;48553;50.766;2.900;2023-03-01T07:35:29;13.63;;;7.10;;
60851;SDS011;48553;50.766;2.900;2023-03-01T07:38:29;16.33;;;7.35;;
60851;SDS011;48553;50.766;2.900;2023-03-01T07:41:30;12.18;;;6.82;;
60851;SDS011;48553;50.766;2.900;2023-03-01T07:44:30;12.50;;;7.22;;
60851;SDS011;48553;50.766;2.900;2023-03-01T07:47:31;13.65;;;7.05;;
60851;SDS011;48553;50.766;2.900;2023-03-01T07:50:32;13.23;;;6.85;;
60851;SDS011;48553;50.766;2.900;2023-03-01T07:53:33;16.27;;;7.55;;
60851;SDS011;48553;50.766;2.900;2023-03-01T07:56:34;14.60;;;7.22;;
60851;SDS011;48553;50.766;2.900;2023-03-01T07:59:35;12.70;;;6.53;;
60851;SDS011;48553;50.766;2.900;2023-03-01T08:02:35;13.65;;;7.25;;
60851;SDS011;48553;50.766;2.900;2023-03-01T08:05:35;14.50;;;6.95;;
60851;SDS011;48553;50.766;2.900;2023-03-01T08:08:36;14.52;;;7.18;;
60851;SDS011;48553;50.766;2.900;2023-03-01T08:17:43;14.43;;;7.38;;
60851;SDS011;48553;50.766;2.900;2023-03-01T08:20:43;13.75;;;7.13;;
60851;SDS011;48553;50.766;2.900;2023-03-01T08:23:44;12.73;;;7.22;;
60851;SDS011;48553;50.766;2.900;2023-03-01T08:26:44;13.23;;;7.25;;
60851;SDS011;48553;50.766;2.900;2023-03-01T08:29:45;13.88;;;7.18;;
60851;SDS011;48553;50.766;2.900;2023-03-01T08:32:45;12.38;;;7.00;;
60851;SDS011;48553;50.766;2.900;2023-03-01T08:35:46;14.35;;;7.35;;
60851;SDS011;48553;50.766;2.900;2023-03-01T08:38:46;12.65;;;7.32;;
60851;SDS011;48553;50.766;2.900;2023-03-01T08:41:47;11.65;;;6.75;;
60851;SDS011;48553;50.766;2.900;2023-03-01T08:44:47;14.30;;;7.85;;
60851;SDS011;48553;50.766;2.900;2023-03-01T08:47:50;17.08;;;7.80;;
60851;SDS011;48553;50.766;2.900;2023-03-01T08:50:52;13.07;;;7.50;;
60851;SDS011;48553;50.766;2.900;2023-03-01T08:53:52;13.38;;;7.40;;
60851;SDS011;48553;50.766;2.900;2023-03-01T08:56:53;12.88;;;7.55;;
60851;SDS011;48553;50.766;2.900;2023-03-01T08:59:53;14.45;;;7.35;;
60851;SDS011;48553;50.766;2.900;2023-03-01T09:02:56;13.50;;;7.28;;
60851;SDS011;48553;50.766;2.900;2023-03-01T09:05:59;13.85;;;7.28;;
60851;SDS011;48553;50.766;2.900;2023-03-01T09:09:01;11.38;;;6.80;;
60851;SDS011;48553;50.766;2.900;2023-03-01T09:12:04;12.40;;;6.97;;
60851;SDS011;48553;50.766;2.900;2023-03-01T09:15:05;13.48;;;7.07;;
60851;SDS011;48553;50.766;2.900;2023-03-01T09:18:06;12.35;;;6.72;;
60851;SDS011;48553;50.766;2.900;2023-03-01T09:21:08;11.57;;;6.80;;
60851;SDS011;48553;50.766;2.900;2023-03-01T09:24:11;12.27;;;6.72;;
60851;SDS011;48553;50.766;2.900;2023-03-01T09:27:14;12.38;;;6.43;;
60851;SDS011;48553;50.766;2.900;2023-03-01T09:30:14;11.95;;;5.95;;
60851;SDS011;48553;50.766;2.900;2023-03-01T09:33:15;11.20;;;6.05;;
60851;SDS011;48553;50.766;2.900;2023-03-01T09:36:17;11.45;;;6.05;;
60851;SDS011;48553;50.766;2.900;2023-03-01T09:39:20;11.52;;;6.10;;
60851;SDS011;48553;50.766;2.900;2023-03-01T09:42:21;10.48;;;5.93;;
60851;SDS011;48553;50.766;2.900;2023-03-01T09:45:43;10.55;;;5.63;;
60851;SDS011;48553;50.766;2.900;2023-03-01T09:48:46;12.27;;;6.03;;
60851;SDS011;48553;50.766;2.900;2023-03-01T09:54:59;11.55;;;5.57;;
60851;SDS011;48553;50.766;2.900;2023-03-01T10:08:00;11.60;;;5.95;;
60851;SDS011;48553;50.766;2.900;2023-03-01T10:11:16;10.70;;;5.57;;
60851;SDS011;48553;50.766;2.900;2023-03-01T10:17:55;10.23;;;5.70;;
60851;SDS011;48553;50.766;2.900;2023-03-01T10:21:01;8.98;;;5.30;;
60851;SDS011;48553;50.766;2.900;2023-03-01T10:24:17;10.02;;;5.68;;
60851;SDS011;48553;50.766;2.900;2023-03-01T10:27:24;12.32;;;5.57;;
60851;SDS011;48553;50.766;2.900;2023-03-01T10:30:32;8.68;;;5.05;;
60851;SDS011;48553;50.766;2.900;2023-03-01T10:33:37;12.38;;;5.10;;
60851;SDS011;48553;50.766;2.900;2023-03-01T10:36:39;9.55;;;5.15;;
60851;SDS011;48553;50.766;2.900;2023-03-01T10:40:04;9.82;;;5.00;;
60851;SDS011;48553;50.766;2.900;2023-03-01T10:43:10;9.55;;;4.88;;
60851;SDS011;48553;50.766;2.900;2023-03-01T10:46:24;9.57;;;5.00;;
60851;SDS011;48553;50.766;2.900;2023-03-01T10:49:27;8.55;;;4.43;;
60851;SDS011;48553;50.766;2.900;2023-03-01T10:52:35;8.57;;;4.50;;
60851;SDS011;48553;50.766;2.900;2023-03-01T10:55:38;8.00;;;4.63;;
60851;SDS011;48553;50.766;2.900;2023-03-01T10:58:41;7.95;;;4.75;;
60851;SDS011;48553;50.766;2.900;2023-03-01T11:02:03;8.25;;;4.45;;
60851;SDS011;48553;50.766;2.900;2023-03-01T11:08:13;9.77;;;4.70;;
60851;SDS011;48553;50.766;2.900;2023-03-01T11:11:29;7.72;;;4.45;;
60851;SDS011;48553;50.766;2.900;2023-03-01T11:14:33;9.20;;;4.65;;
60851;SDS011;48553;50.766;2.900;2023-03-01T11:17:37;9.00;;;4.65;;
60851;SDS011;48553;50.766;2.900;2023-03-01T11:20:43;7.53;;;3.83;;
60851;SDS011;48553;50.766;2.900;2023-03-01T11:23:44;7.30;;;4.20;;
60851;SDS011;48553;50.766;2.900;2023-03-01T11:26:55;8.20;;;4.10;;
60851;SDS011;48553;50.766;2.900;2023-03-01T11:37:13;8.00;;;3.90;;
60851;SDS011;48553;50.766;2.900;2023-03-01T11:40:43;8.35;;;3.92;;
60851;SDS011;48553;50.766;2.900;2023-03-01T11:44:34;8.82;;;3.88;;
60851;SDS011;48553;50.766;2.900;2023-03-01T11:47:52;6.38;;;3.55;;
60851;SDS011;48553;50.766;2.900;2023-03-01T11:50:48;7.75;;;3.55;;
60851;SDS011;48553;50.766;2.900;2023-03-01T12:07:10;6.20;;;3.70;;
60851;SDS011;48553;50.766;2.900;2023-03-01T12:20:09;8.13;;;4.30;;
60851;SDS011;48553;50.766;2.900;2023-03-01T12:43:35;7.78;;;3.78;;
60851;SDS011;48553;50.766;2.900;2023-03-01T12:50:14;5.32;;;3.47;;
60851;SDS011;48553;50.766;2.900;2023-03-01T12:53:27;5.93;;;3.58;;
60851;SDS011;48553;50.766;2.900;2023-03-01T12:56:31;6.32;;;3.40;;
60851;SDS011;48553;50.766;2.900;2023-03-01T13:02:46;6.97;;;3.50;;
60851;SDS011;48553;50.766;2.900;2023-03-01T13:09:19;6.88;;;3.75;;
60851;SDS011;48553;50.766;2.900;2023-03-01T13:12:50;6.15;;;3.80;;
60851;SDS011;48553;50.766;2.900;2023-03-01T13:15:51;7.38;;;3.60;;
60851;SDS011;48553;50.766;2.900;2023-03-01T13:19:05;6.45;;;3.88;;
60851;SDS011;48553;50.766;2.900;2023-03-01T13:28:58;6.82;;;3.65;;
60851;SDS011;48553;50.766;2.900;2023-03-01T13:32:00;7.00;;;3.80;;
60851;SDS011;48553;50.766;2.900;2023-03-01T13:41:54;5.90;;;3.80;;
60851;SDS011;48553;50.766;2.900;2023-03-01T13:44:57;7.18;;;3.47;;
60851;SDS011;48553;50.766;2.900;2023-03-01T13:47:58;7.80;;;3.85;;
60851;SDS011;48553;50.766;2.900;2023-03-01T13:51:03;5.07;;;3.58;;
60851;SDS011;48553;50.766;2.900;2023-03-01T13:54:09;6.05;;;3.63;;
60851;SDS011;48553;50.766;2.900;2023-03-01T13:57:16;7.13;;;3.72;;
60851;SDS011;48553;50.766;2.900;2023-03-01T14:03:31;6.97;;;3.65;;
60851;SDS011;48553;50.766;2.900;2023-03-01T14:06:34;6.07;;;3.33;;
60851;SDS011;48553;50.766;2.900;2023-03-01T14:09:37;7.93;;;3.58;;
60851;SDS011;48553;50.766;2.900;2023-03-01T14:20:08;6.63;;;3.70;;
60851;SDS011;48553;50.766;2.900;2023-03-01T14:23:29;6.28;;;3.53;;
60851;SDS011;48553;50.766;2.900;2023-03-01T14:26:31;7.65;;;3.90;;
60851;SDS011;48553;50.766;2.900;2023-03-01T14:29:36;6.07;;;3.78;;
60851;SDS011;48553;50.766;2.900;2023-03-01T14:32:38;5.53;;;3.58;;
60851;SDS011;48553;50.766;2.900;2023-03-01T14:35:39;6.68;;;3.80;;
60851;SDS011;48553;50.766;2.900;2023-03-01T14:38:40;6.50;;;3.70;;
60851;SDS011;48553;50.766;2.900;2023-03-01T14:41:45;6.43;;;3.90;;
60851;SDS011;48553;50.766;2.900;2023-03-01T14:44:46;6.85;;;3.40;;
60851;SDS011;48553;50.766;2.900;2023-03-01T14:47:50;7.13;;;3.33;;
60851;SDS011;48553;50.766;2.900;2023-03-01T14:50:51;6.85;;;3.10;;
60851;SDS011;48553;50.766;2.900;2023-03-01T14:53:51;6.35;;;3.20;;
60851;SDS011;48553;50.766;2.900;2023-03-01T14:56:54;7.35;;;3.67;;
60851;SDS011;48553;50.766;2.900;2023-03-01T14:59:59;6.63;;;3.67;;
60851;SDS011;48553;50.766;2.900;2023-03-01T15:03:18;7.40;;;3.80;;
60851;SDS011;48553;50.766;2.900;2023-03-01T15:06:25;6.22;;;3.90;;
60851;SDS011;48553;50.766;2.900;2023-03-01T15:09:26;6.07;;;3.85;;
60851;SDS011;48553;50.766;2.900;2023-03-01T15:15:34;6.72;;;3.80;;
60851;SDS011;48553;50.766;2.900;2023-03-01T15:18:43;6.80;;;4.00;;
60851;SDS011;48553;50.766;2.900;2023-03-01T15:21:49;9.05;;;4.13;;
60851;SDS011;48553;50.766;2.900;2023-03-01T15:24:50;7.03;;;4.03;;
60851;SDS011;48553;50.766;2.900;2023-03-01T15:27:51;7.05;;;4.20;;
60851;SDS011;48553;50.766;2.900;2023-03-01T15:31:18;7.38;;;4.00;;
60851;SDS011;48553;50.766;2.900;2023-03-01T15:34:25;7.80;;;4.30;;
60851;SDS011;48553;50.766;2.900;2023-03-01T15:40:48;7.00;;;3.72;;
60851;SDS011;48553;50.766;2.900;2023-03-01T15:43:49;5.97;;;3.88;;
60851;SDS011;48553;50.766;2.900;2023-03-01T15:46:50;7.80;;;3.90;;
60851;SDS011;48553;50.766;2.900;2023-03-01T15:49:51;6.15;;;3.58;;
60851;SDS011;48553;50.766;2.900;2023-03-01T15:52:53;6.75;;;3.90;;
60851;SDS011;48553;50.766;2.900;2023-03-01T15:55:54;6.13;;;3.65;;
60851;SDS011;48553;50.766;2.900;2023-03-01T15:58:59;8.20;;;4.10;;
60851;SDS011;48553;50.766;2.900;2023-03-01T16:02:01;6.75;;;4.03;;
60851;SDS011;48553;50.766;2.900;2023-03-01T16:05:01;7.25;;;4.15;;
60851;SDS011;48553;50.766;2.900;2023-03-01T16:08:02;6.57;;;3.75;;
60851;SDS011;48553;50.766;2.900;2023-03-01T16:11:04;8.40;;;4.43;;
60851;SDS011;48553;50.766;2.900;2023-03-01T16:14:09;7.47;;;3.90;;
60851;SDS011;48553;50.766;2.900;2023-03-01T16:17:10;6.43;;;3.97;;
60851;SDS011;48553;50.766;2.900;2023-03-01T16:20:10;8.38;;;3.83;;
60851;SDS011;48553;50.766;2.900;2023-03-01T16:23:11;7.50;;;4.00;;
60851;SDS011;48553;50.766;2.900;2023-03-01T16:26:11;7.07;;;3.95;;
60851;SDS011;48553;50.766;2.900;2023-03-01T16:29:13;7.53;;;3.97;;
60851;SDS011;48553;50.766;2.900;2023-03-01T16:32:14;7.50;;;3.95;;
60851;SDS011;48553;50.766;2.900;2023-03-01T16:35:16;6.72;;;4.18;;
60851;SDS011;48553;50.766;2.900;2023-03-01T16:38:18;8.57;;;4.45;;
60851;SDS011;48553;50.766;2.900;2023-03-01T16:41:19;6.47;;;3.80;;
60851;SDS011;48553;50.766;2.900;2023-03-01T16:44:22;7.47;;;3.80;;
60851;SDS011;48553;50.766;2.900;2023-03-01T16:47:22;6.47;;;3.67;;
60851;SDS011;48553;50.766;2.900;2023-03-01T16:50:23;9.32;;;4.25;;
60851;SDS011;48553;50.766;2.900;2023-03-01T16:53:23;7.50;;;4.28;;
60851;SDS011;48553;50.766;2.900;2023-03-01T16:56:23;6.72;;;3.75;;
60851;SDS011;48553;50.766;2.900;2023-03-01T16:59:24;8.73;;;4.50;;
60851;SDS011;48553;50.766;2.900;2023-03-01T17:02:24;7.15;;;4.20;;
60851;SDS011;48553;50.766;2.900;2023-03-01T17:05:26;7.95;;;4.30;;
60851;SDS011;48553;50.766;2.900;2023-03-01T17:08:26;9.15;;;4.50;;
60851;SDS011;48553;50.766;2.900;2023-03-01T17:11:26;8.40;;;4.57;;
60851;SDS011;48553;50.766;2.900;2023-03-01T17:14:27;9.30;;;4.97;;
60851;SDS011;48553;50.766;2.900;2023-03-01T17:17:27;11.38;;;4.68;;
60851;SDS011;48553;50.766;2.900;2023-03-01T17:20:28;8.40;;;4.65;;
60851;SDS011;48553;50.766;2.900;2023-03-01T17:23:29;10.95;;;4.75;;
60851;SDS011;48553;50.766;2.900;2023-03-01T17:26:30;8.68;;;4.75;;
60851;SDS011;48553;50.766;2.900;2023-03-01T17:29:30;7.88;;;4.38;;
60851;SDS011;48553;50.766;2.900;2023-03-01T17:32:31;8.07;;;4.47;;
60851;SDS011;48553;50.766;2.900;2023-03-01T17:35:31;8.75;;;4.45;;
60851;SDS011;48553;50.766;2.900;2023-03-01T17:41:37;8.23;;;4.38;;
60851;SDS011;48553;50.766;2.900;2023-03-01T17:44:38;8.00;;;4.55;;
60851;SDS011;48553;50.766;2.900;2023-03-01T17:47:38;8.48;;;4.40;;
60851;SDS011;48553;50.766;2.900;2023-03-01T17:50:38;8.30;;;4.65;;
60851;SDS011;48553;50.766;2.900;2023-03-01T17:53:39;9.75;;;4.60;;
60851;SDS011;48553;50.766;2.900;2023-03-01T17:56:39;9.68;;;4.57;;
60851;SDS011;48553;50.766;2.900;2023-03-01T17:59:41;9.00;;;4.57;;
60851;SDS011;48553;50.766;2.900;2023-03-01T18:02:42;9.05;;;4.72;;
60851;SDS011;48553;50.766;2.900;2023-03-01T18:05:43;8.27;;;4.50;;
60851;SDS011;48553;50.766;2.900;2023-03-01T18:08:44;9.27;;;4.90;;
60851;SDS011;48553;50.766;2.900;2023-03-01T18:11:45;8.55;;;4.40;;
60851;SDS011;48553;50.766;2.900;2023-03-01T18:14:46;8.25;;;4.55;;
60851;SDS011;48553;50.766;2.900;2023-03-01T18:17:52;8.82;;;4.70;;
60851;SDS011;48553;50.766;2.900;2023-03-01T18:20:56;8.82;;;5.00;;
60851;SDS011;48553;50.766;2.900;2023-03-01T18:23:57;9.40;;;4.67;;
60851;SDS011;48553;50.766;2.900;2023-03-01T18:26:58;10.30;;;5.07;;
60851;SDS011;48553;50.766;2.900;2023-03-01T18:29:59;9.15;;;4.53;;
60851;SDS011;48553;50.766;2.900;2023-03-01T18:32:59;10.82;;;4.50;;
60851;SDS011;48553;50.766;2.900;2023-03-01T18:36:00;9.35;;;4.82;;
60851;SDS011;48553;50.766;2.900;2023-03-01T18:39:02;8.63;;;4.53;;
60851;SDS011;48553;50.766;2.900;2023-03-01T18:42:04;9.07;;;4.75;;
60851;SDS011;48553;50.766;2.900;2023-03-01T18:45:05;10.35;;;4.95;;
60851;SDS011;48553;50.766;2.900;2023-03-01T18:48:06;9.93;;;5.25;;
60851;SDS011;48553;50.766;2.900;2023-03-01T18:51:07;8.98;;;4.80;;
60851;SDS011;48553;50.766;2.900;2023-03-01T18:54:09;9.82;;;5.00;;
60851;SDS011;48553;50.766;2.900;2023-03-01T18:57:11;9.73;;;5.22;;
60851;SDS011;48553;50.766;2.900;2023-03-01T19:00:12;8.10;;;4.93;;
60851;SDS011;48553;50.766;2.900;2023-03-01T19:03:12;9.02;;;5.05;;
60851;SDS011;48553;50.766;2.900;2023-03-01T19:06:13;9.95;;;5.20;;
60851;SDS011;48553;50.766;2.900;2023-03-01T19:09:14;10.93;;;5.13;;
60851;SDS011;48553;50.766;2.900;2023-03-01T19:12:14;10.38;;;5.53;;
60851;SDS011;48553;50.766;2.900;2023-03-01T19:15:15;11.05;;;5.20;;
60851;SDS011;48553;50.766;2.900;2023-03-01T19:18:16;10.20;;;5.03;;
60851;SDS011;48553;50.766;2.900;2023-03-01T19:21:17;9.55;;;5.57;;
60851;SDS011;48553;50.766;2.900;2023-03-01T19:24:19;10.93;;;5.63;;
60851;SDS011;48553;50.766;2.900;2023-03-01T19:27:20;10.43;;;5.60;;
60851;SDS011;48553;50.766;2.900;2023-03-01T19:30:20;12.02;;;6.10;;
60851;SDS011;48553;50.766;2.900;2023-03-01T19:33:22;9.90;;;5.60;;
60851;SDS011;48553;50.766;2.900;2023-03-01T19:36:23;9.43;;;5.50;;
60851;SDS011;48553;50.766;2.900;2023-03-01T19:39:31;10.65;;;5.78;;
60851;SDS011;48553;50.766;2.900;2023-03-01T19:42:32;10.38;;;5.53;;
60851;SDS011;48553;50.766;2.900;2023-03-01T19:45:32;11.52;;;6.03;;
60851;SDS011;48553;50.766;2.900;2023-03-01T19:48:33;12.43;;;6.40;;
60851;SDS011;48553;50.766;2.900;2023-03-01T19:51:33;10.98;;;5.72;;
60851;SDS011;48553;50.766;2.900;2023-03-01T19:54:35;11.02;;;6.13;;
60851;SDS011;48553;50.766;2.900;2023-03-01T19:57:36;11.68;;;6.07;;
60851;SDS011;48553;50.766;2.900;2023-03-01T20:00:37;9.77;;;5.72;;
60851;SDS011;48553;50.766;2.900;2023-03-01T20:03:38;9.73;;;5.68;;
60851;SDS011;48553;50.766;2.900;2023-03-01T20:06:39;13.70;;;6.05;;
60851;SDS011;48553;50.766;2.900;2023-03-01T20:09:40;11.15;;;6.63;;
60851;SDS011;48553;50.766;2.900;2023-03-01T20:12:40;11.48;;;6.38;;
60851;SDS011;48553;50.766;2.900;2023-03-01T20:15:41;10.57;;;6.35;;
60851;SDS011;48553;50.766;2.900;2023-03-01T20:18:42;13.15;;;6.25;;
60851;SDS011;48553;50.766;2.900;2023-03-01T20:21:43;15.20;;;6.72;;